createdAt,value
2018-12-12T00:01:56.879Z,10.85
2018-12-12T00:04:24.416Z,9.70
2018-12-12T00:06:52.214Z,10.53
2018-12-12T00:09:19.677Z,9.93
2018-12-12T00:11:47.211Z,9.15
2018-12-12T00:14:14.740Z,9.60
2018-12-12T00:16:42.319Z,10.10
2018-12-12T00:19:09.780Z,9.65
2018-12-12T00:21:37.320Z,10.43
2018-12-12T00:24:04.852Z,10.60
2018-12-12T00:26:32.348Z,10.85
2018-12-12T00:28:59.899Z,10.30
2018-12-12T00:31:27.506Z,9.20
2018-12-12T00:33:57.423Z,9.53
2018-12-12T00:36:25.115Z,10.10
2018-12-12T00:38:52.578Z,9.60
2018-12-12T00:41:20.056Z,9.85
2018-12-12T00:43:47.710Z,9.83
2018-12-12T00:46:15.228Z,10.95
2018-12-12T00:48:42.737Z,9.60
2018-12-12T00:51:10.271Z,10.40
2018-12-12T00:53:37.759Z,9.75
2018-12-12T00:56:05.275Z,9.95
2018-12-12T00:58:32.787Z,11.28
2018-12-12T01:01:00.263Z,10.28
2018-12-12T01:03:27.793Z,11.25
2018-12-12T01:05:55.278Z,10.53
2018-12-12T01:08:22.791Z,10.40
2018-12-12T01:10:52.349Z,10.65
2018-12-12T01:13:19.911Z,10.30
2018-12-12T01:15:47.464Z,10.20
2018-12-12T01:18:14.933Z,11.78
2018-12-12T01:20:42.527Z,10.10
2018-12-12T01:23:10.027Z,10.70
2018-12-12T01:25:37.514Z,11.30
2018-12-12T01:28:07.013Z,11.00
2018-12-12T01:30:34.490Z,11.53
2018-12-12T01:33:02.085Z,9.85
2018-12-12T01:35:29.570Z,10.98
2018-12-12T01:37:57.084Z,10.28
2018-12-12T01:40:24.552Z,11.60
2018-12-12T01:42:52.087Z,11.20
2018-12-12T01:45:19.606Z,10.68
2018-12-12T01:47:47.098Z,10.23
2018-12-12T01:50:14.609Z,10.30
2018-12-12T01:52:42.087Z,9.88
2018-12-12T01:55:09.553Z,9.78
2018-12-12T01:57:37.070Z,10.25
2018-12-12T02:00:05.008Z,9.75
2018-12-12T02:02:32.532Z,9.08
2018-12-12T02:05:00.051Z,10.48
2018-12-12T02:07:27.531Z,11.00
2018-12-12T02:09:55.041Z,9.98
2018-12-12T02:12:22.569Z,11.05
2018-12-12T02:14:50.141Z,9.98
2018-12-12T02:17:17.686Z,11.45
2018-12-12T02:19:45.190Z,9.85
2018-12-12T02:22:12.702Z,9.95
2018-12-12T02:24:40.192Z,11.18
2018-12-12T02:27:07.723Z,10.55
2018-12-12T02:29:35.239Z,11.55
2018-12-12T02:32:02.741Z,9.98
2018-12-12T02:34:30.383Z,10.45
2018-12-12T02:36:57.871Z,10.70
2018-12-12T02:39:25.420Z,11.10
2018-12-12T02:41:53.041Z,9.25
2018-12-12T02:44:20.555Z,10.48
2018-12-12T02:46:48.033Z,10.78
2018-12-12T02:49:15.539Z,10.85
2018-12-12T02:51:43.092Z,10.78
2018-12-12T02:54:10.619Z,10.08
2018-12-12T02:56:38.096Z,10.93
2018-12-12T02:59:05.570Z,11.20
2018-12-12T03:01:33.064Z,10.65
2018-12-12T03:04:00.538Z,10.75
2018-12-12T03:06:28.094Z,9.93
2018-12-12T03:08:55.583Z,11.22
2018-12-12T03:11:24.009Z,10.95
2018-12-12T03:13:51.659Z,10.75
2018-12-12T03:16:19.136Z,11.05
2018-12-12T03:18:46.655Z,10.75
2018-12-12T03:21:14.163Z,11.83
2018-12-12T03:23:41.688Z,10.75
2018-12-12T03:26:09.243Z,12.10
2018-12-12T03:28:36.748Z,11.60
2018-12-12T03:31:04.378Z,12.10
2018-12-12T03:33:32.080Z,11.12
2018-12-12T03:35:59.591Z,12.90
2018-12-12T03:38:27.111Z,12.70
2018-12-12T03:40:54.843Z,12.20
2018-12-12T03:43:22.339Z,12.23
2018-12-12T03:45:49.924Z,12.30
2018-12-12T03:48:17.419Z,13.20
2018-12-12T03:50:44.945Z,12.58
2018-12-12T03:53:12.419Z,12.70
2018-12-12T03:55:39.975Z,11.35
2018-12-12T03:58:07.460Z,11.10
2018-12-12T04:00:34.975Z,12.60
2018-12-12T04:03:02.481Z,11.85
2018-12-12T04:05:30.015Z,12.05
2018-12-12T04:07:57.483Z,12.65
2018-12-12T04:10:25.172Z,12.93
2018-12-12T04:12:52.757Z,11.55
2018-12-12T04:15:20.308Z,13.75
2018-12-12T04:17:47.846Z,12.10
2018-12-12T04:20:15.338Z,11.38
2018-12-12T04:22:42.867Z,11.25
2018-12-12T04:25:10.643Z,11.93
2018-12-12T04:27:38.164Z,11.10
2018-12-12T04:30:06.875Z,10.70
2018-12-12T04:32:34.493Z,11.28
2018-12-12T04:35:02.191Z,12.47
2018-12-12T04:37:29.874Z,12.25
2018-12-12T04:39:57.367Z,10.85
2018-12-12T04:42:24.979Z,11.35
2018-12-12T04:44:52.890Z,14.78
2018-12-12T04:47:20.440Z,10.53
2018-12-12T04:49:47.938Z,11.18
2018-12-12T04:52:15.991Z,9.93
2018-12-12T04:54:43.522Z,11.43
2018-12-12T04:57:11.035Z,11.25
2018-12-12T04:59:38.851Z,10.18
2018-12-12T05:02:06.667Z,10.70
2018-12-12T05:04:34.190Z,11.43
2018-12-12T05:07:01.686Z,10.75
2018-12-12T05:09:29.219Z,11.63
2018-12-12T05:11:56.750Z,11.10
2018-12-12T05:14:24.235Z,10.40
2018-12-12T05:16:51.776Z,10.48
2018-12-12T05:19:19.541Z,9.70
2018-12-12T05:21:47.142Z,11.48
2018-12-12T05:24:14.641Z,10.58
2018-12-12T05:26:42.271Z,10.43
2018-12-12T05:29:09.795Z,10.90
2018-12-12T05:31:38.057Z,10.80
2018-12-12T05:34:05.559Z,9.65
2018-12-12T05:36:33.077Z,11.55
2018-12-12T05:39:00.592Z,10.98
2018-12-12T05:41:28.096Z,10.58
2018-12-12T05:43:57.727Z,9.90
2018-12-12T05:46:25.086Z,11.10
2018-12-12T05:48:52.943Z,10.25
2018-12-12T05:51:20.489Z,12.73
2018-12-12T05:53:47.962Z,10.58
2018-12-12T05:56:15.508Z,10.80
2018-12-12T05:58:43.106Z,9.85
2018-12-12T06:01:10.632Z,10.40
2018-12-12T06:03:38.120Z,10.13
2018-12-12T06:06:05.646Z,10.15
2018-12-12T06:08:33.188Z,8.45
2018-12-12T06:11:01.267Z,9.53
2018-12-12T06:13:29.951Z,11.40
2018-12-12T06:15:57.435Z,10.30
2018-12-12T06:18:26.146Z,11.70
2018-12-12T06:20:53.694Z,10.80
2018-12-12T06:23:21.207Z,10.45
2018-12-12T06:25:48.731Z,11.60
2018-12-12T06:28:16.205Z,9.73
2018-12-12T06:30:43.730Z,9.80
2018-12-12T06:33:11.226Z,10.82
2018-12-12T06:35:38.731Z,10.90
2018-12-12T06:38:06.264Z,10.38
2018-12-12T06:40:33.756Z,10.20
2018-12-12T06:43:01.268Z,11.15
2018-12-12T06:45:28.763Z,12.35
2018-12-12T06:47:56.279Z,11.10
2018-12-12T06:50:23.809Z,11.18
2018-12-12T06:52:51.296Z,11.53
2018-12-12T06:55:18.793Z,12.80
2018-12-12T06:57:46.355Z,11.22
2018-12-12T07:00:13.937Z,10.75
2018-12-12T07:02:41.576Z,10.68
2018-12-12T07:05:09.135Z,11.45
2018-12-12T07:07:36.950Z,10.38
2018-12-12T07:10:05.190Z,9.75
2018-12-12T07:12:32.734Z,10.28
2018-12-12T07:15:00.210Z,10.43
2018-12-12T07:17:27.766Z,8.18
2018-12-12T07:19:55.421Z,8.13
2018-12-12T07:22:22.886Z,7.95
2018-12-12T07:24:50.578Z,8.28
2018-12-12T07:27:18.064Z,9.88
2018-12-12T07:29:45.548Z,10.08
2018-12-12T07:32:13.052Z,9.10
2018-12-12T07:34:40.538Z,8.73
2018-12-12T07:37:08.202Z,8.48
2018-12-12T07:39:35.667Z,8.78
2018-12-12T07:42:03.197Z,8.83
2018-12-12T07:44:30.714Z,7.55
2018-12-12T07:46:58.210Z,8.38
2018-12-12T07:49:25.957Z,10.63
2018-12-12T07:51:53.464Z,12.13
2018-12-12T07:54:21.226Z,9.80
2018-12-12T07:56:49.663Z,9.65
2018-12-12T07:59:17.205Z,9.58
2018-12-12T08:01:44.959Z,9.98
2018-12-12T08:04:12.480Z,9.35
2018-12-12T08:06:39.975Z,10.08
2018-12-12T08:09:07.499Z,8.48
2018-12-12T08:11:34.991Z,8.48
2018-12-12T08:14:02.499Z,10.20
2018-12-12T08:16:30.070Z,11.00
2018-12-12T08:18:57.619Z,11.55
2018-12-12T08:21:25.128Z,8.60
2018-12-12T08:23:52.644Z,9.58
2018-12-12T08:26:20.197Z,8.73
2018-12-12T08:28:47.676Z,10.32
2018-12-12T08:31:15.202Z,13.80
2018-12-12T08:33:42.752Z,9.58
2018-12-12T08:36:10.246Z,8.40
2018-12-12T08:38:37.781Z,11.55
2018-12-12T08:41:05.351Z,9.05
2018-12-12T08:43:32.901Z,8.13
2018-12-12T08:46:00.410Z,7.72
2018-12-12T08:48:27.950Z,7.10
2018-12-12T08:50:56.644Z,7.80
2018-12-12T08:53:24.122Z,8.45
2018-12-12T08:55:51.657Z,7.92
2018-12-12T08:58:19.180Z,7.60
2018-12-12T09:00:46.642Z,6.85
2018-12-12T09:03:17.589Z,7.12
2018-12-12T09:05:43.752Z,7.17
2018-12-12T09:08:11.246Z,7.10
2018-12-12T09:10:38.804Z,5.92
2018-12-12T09:13:06.336Z,5.15
2018-12-12T09:15:33.801Z,6.05
2018-12-12T09:18:01.389Z,6.08
2018-12-12T09:20:28.901Z,6.12
2018-12-12T09:22:56.462Z,5.47
2018-12-12T09:25:24.011Z,6.45
2018-12-12T09:27:51.544Z,6.60
2018-12-12T09:30:19.093Z,7.20
2018-12-12T09:32:46.703Z,5.08
2018-12-12T09:35:14.271Z,4.45
2018-12-12T09:37:41.755Z,3.80
2018-12-12T09:40:09.303Z,3.27
2018-12-12T09:42:36.830Z,3.90
2018-12-12T09:45:13.595Z,3.45
2018-12-12T09:47:41.320Z,3.05
2018-12-12T09:50:08.879Z,3.30
2018-12-12T09:52:50.411Z,3.05
2018-12-12T09:55:18.121Z,3.17
2018-12-12T09:57:45.643Z,3.30
2018-12-12T10:00:13.228Z,4.08
2018-12-12T10:02:40.755Z,4.30
2018-12-12T10:05:08.366Z,3.40
2018-12-12T10:07:35.893Z,3.52
2018-12-12T10:10:03.757Z,3.60
2018-12-12T10:12:31.283Z,3.70
2018-12-12T10:14:58.779Z,4.75
2018-12-12T10:17:26.318Z,3.35
2018-12-12T10:19:53.799Z,4.00
2018-12-12T10:22:21.321Z,3.52
2018-12-12T10:24:48.879Z,3.05
2018-12-12T10:27:16.411Z,4.65
2018-12-12T10:29:44.003Z,2.70
2018-12-12T10:32:11.550Z,3.33
2018-12-12T10:34:39.072Z,3.60
2018-12-12T10:37:06.922Z,3.30
2018-12-12T10:39:34.552Z,3.30
2018-12-12T10:42:02.043Z,3.70
2018-12-12T10:44:29.587Z,3.67
2018-12-12T10:46:57.095Z,3.02
2018-12-12T10:49:24.597Z,3.27
2018-12-12T10:51:52.160Z,3.00
2018-12-12T10:54:19.859Z,3.33
2018-12-12T10:56:47.391Z,3.42
2018-12-12T10:59:14.865Z,2.98
2018-12-12T11:01:47.596Z,3.58
2018-12-12T11:04:16.551Z,3.15
2018-12-12T11:06:44.057Z,3.25
2018-12-12T11:09:11.568Z,3.47
2018-12-12T11:11:39.068Z,3.50
2018-12-12T11:14:06.602Z,3.62
2018-12-12T11:16:34.183Z,3.20
2018-12-12T11:19:01.782Z,3.72
2018-12-12T11:21:29.318Z,3.80
2018-12-12T11:23:56.862Z,3.58
2018-12-12T11:26:24.452Z,3.80
2018-12-12T11:28:51.945Z,4.45
2018-12-12T11:31:19.462Z,3.70
2018-12-12T11:33:50.433Z,3.65
2018-12-12T11:36:16.455Z,3.27
2018-12-12T11:38:44.098Z,3.33
2018-12-12T11:41:11.606Z,3.08
2018-12-12T11:43:39.141Z,3.33
2018-12-12T11:46:06.687Z,2.95
2018-12-12T11:48:34.182Z,3.22
2018-12-12T11:51:01.670Z,2.80
2018-12-12T11:53:29.210Z,3.20
2018-12-12T11:55:56.762Z,3.33
2018-12-12T11:58:24.303Z,2.47
2018-12-12T12:00:51.796Z,3.22
2018-12-12T12:03:19.319Z,3.50
2018-12-12T12:05:48.844Z,2.87
2018-12-12T12:08:16.366Z,2.75
2018-12-12T12:10:43.894Z,3.33
2018-12-12T12:13:11.391Z,2.92
2018-12-12T12:15:38.928Z,2.90
2018-12-12T12:18:06.451Z,4.05
2018-12-12T12:20:33.963Z,3.15
2018-12-12T12:23:01.569Z,3.15
2018-12-12T12:25:29.056Z,3.00
2018-12-12T12:27:56.641Z,3.10
2018-12-12T12:30:24.199Z,3.05
2018-12-12T12:32:51.698Z,3.33
2018-12-12T12:35:19.221Z,3.17
2018-12-12T12:37:46.737Z,2.80
2018-12-12T12:40:14.320Z,5.83
2018-12-12T12:42:41.849Z,3.10
2018-12-12T12:45:09.520Z,2.98
2018-12-12T12:47:37.025Z,3.17
2018-12-12T12:50:05.899Z,2.92
2018-12-12T12:52:33.389Z,2.77
2018-12-12T12:55:00.909Z,2.85
2018-12-12T12:57:28.451Z,2.50
2018-12-12T12:59:56.016Z,2.70
2018-12-12T13:02:23.597Z,3.00
2018-12-12T13:04:51.109Z,3.77
2018-12-12T13:07:19.651Z,3.05
2018-12-12T13:09:47.189Z,3.20
2018-12-12T13:12:14.814Z,3.45
2018-12-12T13:14:42.537Z,3.40
2018-12-12T13:17:10.055Z,2.90
2018-12-12T13:19:37.526Z,3.45
2018-12-12T13:22:05.018Z,3.30
2018-12-12T13:24:32.495Z,2.60
2018-12-12T13:27:00.039Z,3.00
2018-12-12T13:29:27.534Z,3.20
2018-12-12T13:31:55.028Z,3.77
2018-12-12T13:34:22.571Z,3.27
2018-12-12T13:36:50.053Z,3.75
2018-12-12T13:39:17.558Z,3.08
2018-12-12T13:41:45.095Z,3.47
2018-12-12T13:44:12.644Z,3.55
2018-12-12T13:46:40.295Z,2.95
2018-12-12T13:49:07.825Z,3.35
2018-12-12T13:51:35.407Z,2.95
2018-12-12T13:54:03.174Z,3.65
2018-12-12T13:56:30.717Z,3.42
2018-12-12T13:58:58.346Z,3.00
2018-12-12T14:01:26.012Z,3.55
2018-12-12T14:03:53.557Z,3.00
2018-12-12T14:06:21.831Z,2.90
2018-12-12T14:08:49.569Z,3.08
2018-12-12T14:11:17.298Z,3.20
2018-12-12T14:13:44.833Z,3.35
2018-12-12T14:16:12.558Z,3.85
2018-12-12T14:18:40.110Z,3.50
2018-12-12T14:21:07.597Z,3.05
2018-12-12T14:23:35.276Z,3.12
2018-12-12T14:26:02.905Z,3.12
2018-12-12T14:28:30.414Z,3.27
2018-12-12T14:30:57.980Z,3.42
2018-12-12T14:33:26.474Z,3.72
2018-12-12T14:35:54.040Z,2.72
2018-12-12T14:38:21.584Z,3.05
2018-12-12T14:40:49.051Z,2.62
2018-12-12T14:43:16.627Z,3.25
2018-12-12T14:45:44.135Z,3.12
2018-12-12T14:48:11.622Z,2.75
2018-12-12T14:50:39.141Z,2.70
2018-12-12T14:53:06.650Z,3.10
2018-12-12T14:55:34.166Z,3.22
2018-12-12T14:58:01.662Z,2.65
2018-12-12T15:00:29.292Z,3.50
2018-12-12T15:02:56.823Z,3.20
2018-12-12T15:05:24.352Z,3.00
2018-12-12T15:07:51.915Z,3.83
2018-12-12T15:10:19.463Z,2.90
2018-12-12T15:12:47.014Z,2.75
2018-12-12T15:15:14.482Z,3.20
2018-12-12T15:17:42.009Z,3.17
2018-12-12T15:20:09.533Z,3.40
2018-12-12T15:22:37.023Z,3.45
2018-12-12T15:25:05.068Z,3.05
2018-12-12T15:27:32.553Z,3.10
2018-12-12T15:30:00.143Z,3.10
2018-12-12T15:32:27.851Z,2.77
2018-12-12T15:34:55.374Z,3.10
2018-12-12T15:37:23.088Z,3.02
2018-12-12T15:39:51.623Z,4.47
2018-12-12T15:42:19.196Z,3.60
2018-12-12T15:44:46.699Z,4.58
2018-12-12T15:47:14.240Z,3.27
2018-12-12T15:49:41.714Z,3.90
2018-12-12T15:52:09.275Z,3.20
2018-12-12T15:54:36.889Z,4.37
2018-12-12T15:57:04.541Z,4.50
2018-12-12T15:59:32.076Z,4.10
2018-12-12T16:01:59.693Z,4.05
2018-12-12T16:04:27.320Z,5.20
2018-12-12T16:06:55.037Z,4.90
2018-12-12T16:09:22.729Z,4.97
2018-12-12T16:11:50.235Z,4.90
2018-12-12T16:14:17.786Z,5.28
2018-12-12T16:16:45.416Z,4.30
2018-12-12T16:19:12.988Z,4.37
2018-12-12T16:21:40.730Z,4.03
2018-12-12T16:24:08.356Z,4.45
2018-12-12T16:26:36.060Z,4.80
2018-12-12T16:29:03.668Z,4.40
2018-12-12T16:31:31.836Z,4.62
2018-12-12T16:33:59.387Z,5.08
2018-12-12T16:36:27.007Z,5.30
2018-12-12T16:38:54.804Z,5.20
2018-12-12T16:41:22.339Z,4.15
2018-12-12T16:43:50.075Z,4.85
2018-12-12T16:46:17.705Z,3.95
2018-12-12T16:48:45.573Z,4.40
2018-12-12T16:51:13.326Z,3.85
2018-12-12T16:53:42.206Z,4.15
2018-12-12T16:56:09.750Z,4.55
2018-12-12T16:58:37.257Z,3.75
2018-12-12T17:01:04.866Z,4.12
2018-12-12T17:03:32.343Z,4.20
2018-12-12T17:05:59.878Z,4.20
2018-12-12T17:08:27.590Z,4.05
2018-12-12T17:10:55.146Z,4.33
2018-12-12T17:13:22.617Z,3.55
2018-12-12T17:15:50.163Z,4.47
2018-12-12T17:18:17.887Z,4.00
2018-12-12T17:20:45.521Z,3.50
2018-12-12T17:23:13.038Z,4.03
2018-12-12T17:25:40.633Z,3.30
2018-12-12T17:28:08.123Z,4.55
2018-12-12T17:30:35.649Z,4.15
2018-12-12T17:33:03.128Z,3.62
2018-12-12T17:35:30.651Z,3.70
2018-12-12T17:38:00.220Z,4.55
2018-12-12T17:40:27.973Z,3.83
2018-12-12T17:42:55.510Z,4.90
2018-12-12T17:45:23.139Z,4.72
2018-12-12T17:47:50.752Z,3.67
2018-12-12T17:50:18.426Z,3.45
2018-12-12T17:52:46.058Z,5.65
2018-12-12T17:55:13.600Z,4.58
2018-12-12T17:57:41.150Z,4.05
2018-12-12T18:00:09.107Z,4.62
2018-12-12T18:02:36.628Z,3.90
2018-12-12T18:05:05.306Z,4.50
2018-12-12T18:07:32.823Z,5.40
2018-12-12T18:10:00.362Z,3.45
2018-12-12T18:12:27.955Z,3.83
2018-12-12T18:14:55.538Z,3.05
2018-12-12T18:17:23.035Z,4.03
2018-12-12T18:19:50.577Z,3.55
2018-12-12T18:22:18.268Z,5.30
2018-12-12T18:24:46.393Z,4.85
2018-12-12T18:27:13.927Z,5.58
2018-12-12T18:29:41.582Z,4.60
2018-12-12T18:32:09.148Z,3.50
2018-12-12T18:34:36.766Z,4.70
2018-12-12T18:37:04.339Z,4.12
2018-12-12T18:39:31.919Z,2.95
2018-12-12T18:41:59.621Z,2.35
2018-12-12T18:44:27.266Z,2.80
2018-12-12T18:46:54.793Z,2.62
2018-12-12T18:49:22.410Z,2.90
2018-12-12T18:51:50.228Z,2.70
2018-12-12T18:54:17.758Z,2.75
2018-12-12T18:56:45.291Z,2.30
2018-12-12T18:59:12.831Z,2.58
2018-12-12T19:01:40.409Z,2.50
2018-12-12T19:04:07.894Z,2.52
2018-12-12T19:06:35.407Z,2.62
2018-12-12T19:09:02.939Z,2.55
2018-12-12T19:11:30.514Z,2.67
2018-12-12T19:13:58.056Z,2.37
2018-12-12T19:16:25.606Z,2.77
2018-12-12T19:18:53.720Z,2.95
2018-12-12T19:21:21.264Z,2.50
2018-12-12T19:23:49.012Z,2.58
2018-12-12T19:26:16.540Z,2.52
2018-12-12T19:28:44.060Z,3.12
2018-12-12T19:31:11.548Z,2.95
2018-12-12T19:33:39.089Z,3.10
2018-12-12T19:36:06.601Z,2.87
2018-12-12T19:38:34.143Z,2.72
2018-12-12T19:41:01.711Z,2.52
2018-12-12T19:43:29.261Z,3.58
2018-12-12T19:45:56.840Z,2.60
2018-12-12T19:48:24.453Z,2.60
2018-12-12T19:50:51.996Z,2.40
2018-12-12T19:53:19.602Z,2.72
2018-12-12T19:55:47.134Z,2.77
2018-12-12T19:58:14.652Z,2.17
2018-12-12T20:00:42.163Z,2.60
2018-12-12T20:03:09.684Z,2.50
2018-12-12T20:05:41.335Z,2.55
2018-12-12T20:08:06.759Z,2.40
2018-12-12T20:10:34.314Z,2.75
2018-12-12T20:13:01.859Z,3.40
2018-12-12T20:15:44.954Z,2.98
2018-12-12T20:18:12.504Z,3.20
2018-12-12T20:20:40.031Z,3.30
2018-12-12T20:23:07.557Z,2.98
2018-12-12T20:25:35.147Z,2.80
2018-12-12T20:28:02.667Z,3.08
2018-12-12T20:30:35.341Z,2.75
2018-12-12T20:33:00.060Z,2.72
2018-12-12T20:35:27.897Z,2.55
2018-12-12T20:37:55.722Z,3.00
2018-12-12T20:40:23.641Z,2.20
2018-12-12T20:42:51.388Z,2.42
2018-12-12T20:45:19.256Z,2.35
2018-12-12T20:47:46.841Z,2.58
2018-12-12T20:50:14.435Z,2.60
2018-12-12T20:52:41.967Z,3.75
2018-12-12T20:55:09.540Z,3.30
2018-12-12T20:57:37.064Z,3.98
2018-12-12T21:00:04.798Z,4.12
2018-12-12T21:02:32.379Z,3.55
2018-12-12T21:05:01.179Z,3.40
2018-12-12T21:07:28.733Z,2.95
2018-12-12T21:09:56.360Z,2.72
2018-12-12T21:12:23.853Z,3.05
2018-12-12T21:14:51.423Z,2.75
2018-12-12T21:17:24.926Z,2.60
2018-12-12T21:19:53.038Z,2.75
2018-12-12T21:22:20.610Z,3.70
2018-12-12T21:24:48.159Z,3.75
2018-12-12T21:27:15.702Z,2.90
2018-12-12T21:29:44.137Z,3.50
2018-12-12T21:32:19.927Z,3.15
2018-12-12T21:34:47.745Z,3.20
2018-12-12T21:37:15.307Z,3.50
2018-12-12T21:39:42.843Z,3.37
2018-12-12T21:42:10.378Z,3.40
2018-12-12T21:44:37.876Z,3.90
2018-12-12T21:47:05.459Z,3.40
2018-12-12T21:49:33.018Z,3.70
2018-12-12T21:52:00.513Z,3.30
2018-12-12T21:54:27.994Z,3.00
2018-12-12T21:56:55.543Z,2.75
2018-12-12T21:59:23.008Z,3.05
2018-12-12T22:01:50.528Z,3.50
2018-12-12T22:04:18.119Z,3.25
2018-12-12T22:06:47.672Z,3.35
2018-12-12T22:09:15.207Z,2.80
2018-12-12T22:11:42.695Z,3.25
2018-12-12T22:14:10.222Z,2.83
2018-12-12T22:16:37.713Z,3.75
2018-12-12T22:19:05.352Z,3.20
2018-12-12T22:21:33.013Z,3.25
2018-12-12T22:24:00.543Z,2.92
2018-12-12T22:26:28.101Z,3.60
2018-12-12T22:28:55.602Z,3.30
2018-12-12T22:31:23.275Z,3.08
2018-12-12T22:33:50.855Z,3.33
2018-12-12T22:36:18.445Z,3.00
2018-12-12T22:38:46.019Z,3.58
2018-12-12T22:41:13.479Z,3.55
2018-12-12T22:43:41.011Z,3.22
2018-12-12T22:46:08.547Z,3.25
2018-12-12T22:48:36.094Z,3.20
2018-12-12T22:51:03.676Z,3.80
2018-12-12T22:53:32.137Z,3.87
2018-12-12T22:55:59.659Z,3.70
2018-12-12T22:58:27.200Z,4.10
2018-12-12T23:00:59.587Z,3.58
2018-12-12T23:03:27.056Z,3.65
2018-12-12T23:05:54.569Z,3.20
2018-12-12T23:08:22.104Z,3.52
2018-12-12T23:10:49.584Z,3.65
2018-12-12T23:13:17.096Z,3.60
2018-12-12T23:15:44.560Z,3.42
2018-12-12T23:18:12.196Z,3.42
2018-12-12T23:20:39.784Z,3.30
2018-12-12T23:23:07.267Z,3.52
2018-12-12T23:25:34.877Z,3.98
2018-12-12T23:28:02.482Z,4.25
2018-12-12T23:30:30.005Z,3.25
2018-12-12T23:32:57.469Z,3.55
2018-12-12T23:35:25.265Z,3.67
2018-12-12T23:37:52.808Z,3.90
2018-12-12T23:40:20.378Z,4.17
2018-12-12T23:42:47.922Z,3.80
2018-12-12T23:45:15.425Z,4.25
2018-12-12T23:47:43.062Z,3.67
2018-12-12T23:50:10.572Z,3.52
2018-12-12T23:52:38.171Z,4.00
2018-12-12T23:55:06.005Z,4.30
2018-12-12T23:57:33.526Z,3.87
